Buraimi, Oman
Current Conditions -  °F | °C
As of 6:00 AM on Tuesday 25 Nov 2014 (Local Time) from OMAL Reporting Station
Clear Clear  
Wind Chill: 72°   Ceiling: Unl
Heat Index: 72°   Visibility: 6mi
Dew Point: 63°   Wind: 14mph
Humidity: 73%   Direction: 160°SSE
Pressure: 29.97"   Gusts: NA
Location:  24.25°N, 55.79°E
Report Text: OMAL 250200Z 16012KT CAVOK 22/17 Q1015 A2999 NOSIG
Loading
Personal Weather Stations






























Interactive Weather Map New forecast layout! Learn more

10-Day Weather Forecast

Advertisements
Track Severe Weather on mobile